sensor_id;sensor_type;location;lat;lon;timestamp;pressure;altitude;pressure_sealevel;temperature;humidity
64844;BME280;51310;52.198;5.422;2023-04-25T00:01:46;100898.94;;;4.16;100.00
64844;BME280;51310;52.198;5.422;2023-04-25T00:04:12;100901.13;;;4.20;100.00
64844;BME280;51310;52.198;5.422;2023-04-25T00:06:38;100910.09;;;4.23;100.00
64844;BME280;51310;52.198;5.422;2023-04-25T00:09:06;100905.69;;;4.29;100.00
64844;BME280;51310;52.198;5.422;2023-04-25T00:11:36;100908.13;;;4.42;100.00
64844;BME280;51310;52.198;5.422;2023-04-25T00:14:04;100903.41;;;4.45;100.00
64844;BME280;51310;52.198;5.422;2023-04-25T00:16:30;100903.06;;;4.49;100.00
64844;BME280;51310;52.198;5.422;2023-04-25T00:18:59;100897.41;;;4.52;100.00
64844;BME280;51310;52.198;5.422;2023-04-25T00:21:25;100894.69;;;4.58;100.00
64844;BME280;51310;52.198;5.422;2023-04-25T00:23:53;100901.41;;;4.57;100.00
64844;BME280;51310;52.198;5.422;2023-04-25T00:26:18;100894.88;;;4.59;100.00
64844;BME280;51310;52.198;5.422;2023-04-25T00:28:47;100904.31;;;4.53;100.00
64844;BME280;51310;52.198;5.422;2023-04-25T00:31:12;100904.13;;;4.44;100.00
64844;BME280;51310;52.198;5.422;2023-04-25T00:33:38;100905.91;;;4.38;100.00
64844;BME280;51310;52.198;5.422;2023-04-25T00:36:05;100900.47;;;4.35;100.00
64844;BME280;51310;52.198;5.422;2023-04-25T00:38:31;100893.16;;;4.31;100.00
64844;BME280;51310;52.198;5.422;2023-04-25T00:40:57;100902.78;;;4.26;100.00
64844;BME280;51310;52.198;5.422;2023-04-25T00:43:27;100914.97;;;4.22;100.00
64844;BME280;51310;52.198;5.422;2023-04-25T00:45:53;100908.97;;;4.21;100.00
64844;BME280;51310;52.198;5.422;2023-04-25T00:48:21;100909.69;;;4.20;100.00
64844;BME280;51310;52.198;5.422;2023-04-25T00:50:58;100907.34;;;4.22;100.00
64844;BME280;51310;52.198;5.422;2023-04-25T00:53:26;100910.78;;;4.22;100.00
64844;BME280;51310;52.198;5.422;2023-04-25T00:55:53;100908.44;;;4.24;100.00
64844;BME280;51310;52.198;5.422;2023-04-25T00:58:22;100904.25;;;4.24;100.00
64844;BME280;51310;52.198;5.422;2023-04-25T01:00:50;100899.50;;;4.20;100.00
64844;BME280;51310;52.198;5.422;2023-04-25T01:03:18;100895.13;;;4.19;100.00
64844;BME280;51310;52.198;5.422;2023-04-25T01:05:46;100905.13;;;4.18;100.00
64844;BME280;51310;52.198;5.422;2023-04-25T01:08:13;100899.47;;;4.13;100.00
64844;BME280;51310;52.198;5.422;2023-04-25T01:10:39;100900.03;;;4.10;100.00
64844;BME280;51310;52.198;5.422;2023-04-25T01:13:05;100901.06;;;4.05;100.00
64844;BME280;51310;52.198;5.422;2023-04-25T01:15:32;100896.72;;;4.04;100.00
64844;BME280;51310;52.198;5.422;2023-04-25T01:17:58;100896.16;;;4.00;100.00
64844;BME280;51310;52.198;5.422;2023-04-25T01:20:26;100904.31;;;3.97;100.00
64844;BME280;51310;52.198;5.422;2023-04-25T01:22:54;100910.13;;;3.96;100.00
64844;BME280;51310;52.198;5.422;2023-04-25T01:25:22;100913.94;;;3.93;100.00
64844;BME280;51310;52.198;5.422;2023-04-25T01:27:47;100913.75;;;3.91;100.00
64844;BME280;51310;52.198;5.422;2023-04-25T01:30:13;100921.56;;;3.93;100.00
64844;BME280;51310;52.198;5.422;2023-04-25T01:32:41;100918.66;;;3.89;100.00
64844;BME280;51310;52.198;5.422;2023-04-25T01:35:10;100913.38;;;3.95;100.00
64844;BME280;51310;52.198;5.422;2023-04-25T01:37:41;100916.09;;;3.82;100.00
64844;BME280;51310;52.198;5.422;2023-04-25T01:40:10;100916.94;;;3.76;100.00
64844;BME280;51310;52.198;5.422;2023-04-25T01:42:41;100918.66;;;3.62;100.00
64844;BME280;51310;52.198;5.422;2023-04-25T01:45:08;100921.72;;;3.53;100.00
64844;BME280;51310;52.198;5.422;2023-04-25T01:47:34;100919.31;;;3.47;100.00
64844;BME280;51310;52.198;5.422;2023-04-25T01:50:04;100930.00;;;3.44;100.00
64844;BME280;51310;52.198;5.422;2023-04-25T01:52:30;100934.91;;;3.43;100.00
64844;BME280;51310;52.198;5.422;2023-04-25T01:55:00;100937.44;;;3.43;100.00
64844;BME280;51310;52.198;5.422;2023-04-25T01:57:26;100935.75;;;3.36;100.00
64844;BME280;51310;52.198;5.422;2023-04-25T02:00:00;100937.94;;;3.33;100.00
64844;BME280;51310;52.198;5.422;2023-04-25T02:02:26;100934.59;;;3.27;100.00
64844;BME280;51310;52.198;5.422;2023-04-25T02:04:52;100950.56;;;3.26;100.00
64844;BME280;51310;52.198;5.422;2023-04-25T02:07:19;100945.16;;;3.30;100.00
64844;BME280;51310;52.198;5.422;2023-04-25T02:09:45;100942.25;;;3.27;100.00
64844;BME280;51310;52.198;5.422;2023-04-25T02:12:11;100948.97;;;3.26;100.00
64844;BME280;51310;52.198;5.422;2023-04-25T02:14:37;100941.47;;;3.21;100.00
64844;BME280;51310;52.198;5.422;2023-04-25T02:17:02;100942.88;;;3.19;100.00
64844;BME280;51310;52.198;5.422;2023-04-25T02:19:28;100947.78;;;3.17;100.00
64844;BME280;51310;52.198;5.422;2023-04-25T02:21:54;100942.88;;;3.19;100.00
64844;BME280;51310;52.198;5.422;2023-04-25T02:24:20;100945.75;;;3.15;100.00
64844;BME280;51310;52.198;5.422;2023-04-25T02:26:46;100948.25;;;3.07;100.00
64844;BME280;51310;52.198;5.422;2023-04-25T02:29:12;100944.81;;;3.07;100.00
64844;BME280;51310;52.198;5.422;2023-04-25T02:31:38;100950.59;;;3.06;100.00
64844;BME280;51310;52.198;5.422;2023-04-25T02:34:04;100951.50;;;3.06;100.00
64844;BME280;51310;52.198;5.422;2023-04-25T02:36:30;100960.06;;;3.07;100.00
64844;BME280;51310;52.198;5.422;2023-04-25T02:39:00;100955.47;;;3.04;100.00
64844;BME280;51310;52.198;5.422;2023-04-25T02:41:26;100957.63;;;3.01;100.00
64844;BME280;51310;52.198;5.422;2023-04-25T02:43:52;100957.75;;;2.96;100.00
64844;BME280;51310;52.198;5.422;2023-04-25T02:46:18;100962.56;;;2.87;100.00
64844;BME280;51310;52.198;5.422;2023-04-25T02:48:43;100954.44;;;2.90;100.00
64844;BME280;51310;52.198;5.422;2023-04-25T02:51:09;100964.34;;;2.81;100.00
64844;BME280;51310;52.198;5.422;2023-04-25T02:53:35;100963.25;;;2.79;100.00
64844;BME280;51310;52.198;5.422;2023-04-25T02:56:01;100972.72;;;2.87;100.00
64844;BME280;51310;52.198;5.422;2023-04-25T02:58:27;100971.19;;;2.95;100.00
64844;BME280;51310;52.198;5.422;2023-04-25T03:00:53;100978.81;;;2.95;100.00
64844;BME280;51310;52.198;5.422;2023-04-25T03:03:19;100968.84;;;2.96;100.00
64844;BME280;51310;52.198;5.422;2023-04-25T03:05:50;100970.66;;;2.97;100.00
64844;BME280;51310;52.198;5.422;2023-04-25T03:08:19;100965.78;;;2.99;100.00
64844;BME280;51310;52.198;5.422;2023-04-25T03:10:45;100967.75;;;2.94;100.00
64844;BME280;51310;52.198;5.422;2023-04-25T03:13:11;100964.63;;;2.90;100.00
64844;BME280;51310;52.198;5.422;2023-04-25T03:15:38;100971.19;;;2.75;100.00
64844;BME280;51310;52.198;5.422;2023-04-25T03:18:04;100964.09;;;2.72;100.00
64844;BME280;51310;52.198;5.422;2023-04-25T03:20:29;100978.06;;;2.76;100.00
64844;BME280;51310;52.198;5.422;2023-04-25T03:22:55;100982.53;;;2.84;100.00
64844;BME280;51310;52.198;5.422;2023-04-25T03:25:21;100985.97;;;2.84;100.00
64844;BME280;51310;52.198;5.422;2023-04-25T03:27:47;100989.75;;;2.81;100.00
64844;BME280;51310;52.198;5.422;2023-04-25T03:30:12;100992.69;;;2.84;100.00
64844;BME280;51310;52.198;5.422;2023-04-25T03:32:38;100994.72;;;2.86;100.00
64844;BME280;51310;52.198;5.422;2023-04-25T03:35:04;100997.03;;;2.85;100.00
64844;BME280;51310;52.198;5.422;2023-04-25T03:37:30;100992.38;;;2.88;100.00
64844;BME280;51310;52.198;5.422;2023-04-25T03:39:56;101004.34;;;2.89;100.00
64844;BME280;51310;52.198;5.422;2023-04-25T03:42:22;101003.13;;;2.93;100.00
64844;BME280;51310;52.198;5.422;2023-04-25T03:44:51;101000.28;;;2.97;100.00
64844;BME280;51310;52.198;5.422;2023-04-25T03:47:17;100998.91;;;3.06;100.00
64844;BME280;51310;52.198;5.422;2023-04-25T03:49:43;101008.97;;;3.12;100.00
64844;BME280;51310;52.198;5.422;2023-04-25T03:52:09;100997.53;;;3.15;100.00
64844;BME280;51310;52.198;5.422;2023-04-25T03:54:35;100998.13;;;3.20;100.00
64844;BME280;51310;52.198;5.422;2023-04-25T03:57:01;100999.03;;;3.20;100.00
64844;BME280;51310;52.198;5.422;2023-04-25T03:59:27;101001.44;;;3.26;100.00
64844;BME280;51310;52.198;5.422;2023-04-25T04:01:52;100990.81;;;3.36;100.00
64844;BME280;51310;52.198;5.422;2023-04-25T04:04:18;101002.31;;;3.39;100.00
64844;BME280;51310;52.198;5.422;2023-04-25T04:06:44;100999.56;;;3.38;100.00
64844;BME280;51310;52.198;5.422;2023-04-25T04:09:10;101001.91;;;3.36;100.00
64844;BME280;51310;52.198;5.422;2023-04-25T04:11:37;100999.41;;;3.43;100.00
64844;BME280;51310;52.198;5.422;2023-04-25T04:14:08;100995.50;;;3.53;100.00
64844;BME280;51310;52.198;5.422;2023-04-25T04:16:33;100994.31;;;3.63;100.00
64844;BME280;51310;52.198;5.422;2023-04-25T04:18:59;100983.28;;;3.70;100.00
64844;BME280;51310;52.198;5.422;2023-04-25T04:21:25;100984.50;;;3.66;100.00
64844;BME280;51310;52.198;5.422;2023-04-25T04:23:52;100993.03;;;3.67;100.00
64844;BME280;51310;52.198;5.422;2023-04-25T04:26:17;100994.16;;;3.69;100.00
64844;BME280;51310;52.198;5.422;2023-04-25T04:28:43;100992.91;;;3.73;100.00
64844;BME280;51310;52.198;5.422;2023-04-25T04:31:10;100991.69;;;3.76;100.00
64844;BME280;51310;52.198;5.422;2023-04-25T04:33:36;101000.03;;;3.75;100.00
64844;BME280;51310;52.198;5.422;2023-04-25T04:36:03;101003.09;;;3.73;100.00
64844;BME280;51310;52.198;5.422;2023-04-25T04:38:29;101004.00;;;3.73;100.00
64844;BME280;51310;52.198;5.422;2023-04-25T04:40:55;101002.38;;;3.74;100.00
64844;BME280;51310;52.198;5.422;2023-04-25T04:43:21;101008.19;;;3.73;100.00
64844;BME280;51310;52.198;5.422;2023-04-25T04:45:48;101010.53;;;3.71;100.00
64844;BME280;51310;52.198;5.422;2023-04-25T04:48:16;101022.16;;;3.69;100.00
64844;BME280;51310;52.198;5.422;2023-04-25T04:50:43;101015.56;;;3.64;100.00
64844;BME280;51310;52.198;5.422;2023-04-25T04:53:11;101023.00;;;3.62;100.00
64844;BME280;51310;52.198;5.422;2023-04-25T04:55:37;101013.94;;;3.64;100.00
64844;BME280;51310;52.198;5.422;2023-04-25T04:58:02;101027.94;;;3.61;100.00
64844;BME280;51310;52.198;5.422;2023-04-25T05:00:28;101031.38;;;3.61;100.00
64844;BME280;51310;52.198;5.422;2023-04-25T05:02:55;101037.38;;;3.62;100.00
64844;BME280;51310;52.198;5.422;2023-04-25T05:05:21;101034.31;;;3.64;100.00
64844;BME280;51310;52.198;5.422;2023-04-25T05:07:47;101037.63;;;3.70;100.00
64844;BME280;51310;52.198;5.422;2023-04-25T05:10:13;101043.09;;;3.74;100.00
64844;BME280;51310;52.198;5.422;2023-04-25T05:12:38;101045.63;;;3.74;100.00
64844;BME280;51310;52.198;5.422;2023-04-25T05:15:05;101053.69;;;3.77;100.00
64844;BME280;51310;52.198;5.422;2023-04-25T05:17:31;101053.34;;;3.81;100.00
64844;BME280;51310;52.198;5.422;2023-04-25T05:19:58;101055.75;;;3.86;100.00
64844;BME280;51310;52.198;5.422;2023-04-25T05:22:24;101055.41;;;3.90;100.00
64844;BME280;51310;52.198;5.422;2023-04-25T05:24:49;101065.78;;;3.92;100.00
64844;BME280;51310;52.198;5.422;2023-04-25T05:27:17;101073.31;;;3.98;100.00
64844;BME280;51310;52.198;5.422;2023-04-25T05:29:44;101073.69;;;4.01;100.00
64844;BME280;51310;52.198;5.422;2023-04-25T05:32:09;101074.66;;;4.08;100.00
64844;BME280;51310;52.198;5.422;2023-04-25T05:34:35;101072.28;;;4.10;100.00
64844;BME280;51310;52.198;5.422;2023-04-25T05:37:01;101071.38;;;4.09;100.00
64844;BME280;51310;52.198;5.422;2023-04-25T05:39:27;101077.78;;;4.13;100.00
64844;BME280;51310;52.198;5.422;2023-04-25T05:41:53;101077.25;;;4.16;100.00
64844;BME280;51310;52.198;5.422;2023-04-25T05:44:19;101071.06;;;4.21;100.00
64844;BME280;51310;52.198;5.422;2023-04-25T05:46:44;101069.63;;;4.23;100.00
64844;BME280;51310;52.198;5.422;2023-04-25T05:49:10;101080.03;;;4.24;100.00
64844;BME280;51310;52.198;5.422;2023-04-25T05:51:36;101074.19;;;4.25;100.00
64844;BME280;51310;52.198;5.422;2023-04-25T05:54:01;101089.16;;;4.29;100.00
64844;BME280;51310;52.198;5.422;2023-04-25T05:56:27;101091.19;;;4.32;100.00
64844;BME280;51310;52.198;5.422;2023-04-25T05:58:53;101097.56;;;4.36;100.00
64844;BME280;51310;52.198;5.422;2023-04-25T06:01:19;101092.13;;;4.40;100.00
64844;BME280;51310;52.198;5.422;2023-04-25T06:03:44;101092.00;;;4.45;100.00
64844;BME280;51310;52.198;5.422;2023-04-25T06:06:11;101097.13;;;4.52;100.00
64844;BME280;51310;52.198;5.422;2023-04-25T06:08:37;101097.56;;;4.70;100.00
64844;BME280;51310;52.198;5.422;2023-04-25T06:11:04;101095.66;;;4.89;100.00
64844;BME280;51310;52.198;5.422;2023-04-25T06:13:30;101104.28;;;5.18;100.00
64844;BME280;51310;52.198;5.422;2023-04-25T06:15:55;101098.50;;;5.26;100.00
64844;BME280;51310;52.198;5.422;2023-04-25T06:18:21;101102.88;;;5.27;100.00
64844;BME280;51310;52.198;5.422;2023-04-25T06:20:47;101098.34;;;5.25;100.00
64844;BME280;51310;52.198;5.422;2023-04-25T06:23:12;101111.09;;;5.25;100.00
64844;BME280;51310;52.198;5.422;2023-04-25T06:25:38;101109.06;;;5.22;100.00
64844;BME280;51310;52.198;5.422;2023-04-25T06:28:04;101116.34;;;5.26;100.00
64844;BME280;51310;52.198;5.422;2023-04-25T06:30:30;101115.44;;;5.26;100.00
64844;BME280;51310;52.198;5.422;2023-04-25T06:32:55;101112.00;;;5.32;100.00
64844;BME280;51310;52.198;5.422;2023-04-25T06:35:21;101120.41;;;5.39;100.00
64844;BME280;51310;52.198;5.422;2023-04-25T06:37:47;101122.75;;;5.30;100.00
64844;BME280;51310;52.198;5.422;2023-04-25T06:40:13;101123.13;;;5.33;100.00
64844;BME280;51310;52.198;5.422;2023-04-25T06:42:38;101124.06;;;5.41;100.00
64844;BME280;51310;52.198;5.422;2023-04-25T06:45:04;101127.53;;;5.48;100.00
64844;BME280;51310;52.198;5.422;2023-04-25T06:47:30;101131.38;;;5.59;100.00
64844;BME280;51310;52.198;5.422;2023-04-25T06:49:56;101127.56;;;5.55;100.00
64844;BME280;51310;52.198;5.422;2023-04-25T06:52:22;101131.41;;;5.66;100.00
64844;BME280;51310;52.198;5.422;2023-04-25T06:54:47;101132.16;;;5.72;100.00
64844;BME280;51310;52.198;5.422;2023-04-25T06:57:13;101123.94;;;5.75;100.00
64844;BME280;51310;52.198;5.422;2023-04-25T06:59:39;101135.81;;;5.96;100.00
64844;BME280;51310;52.198;5.422;2023-04-25T07:02:05;101136.03;;;6.05;100.00
64844;BME280;51310;52.198;5.422;2023-04-25T07:04:31;101137.28;;;5.94;100.00
64844;BME280;51310;52.198;5.422;2023-04-25T07:06:57;101134.16;;;5.82;100.00
64844;BME280;51310;52.198;5.422;2023-04-25T07:09:23;101138.38;;;5.96;100.00
64844;BME280;51310;52.198;5.422;2023-04-25T07:11:48;101148.06;;;6.20;100.00
64844;BME280;51310;52.198;5.422;2023-04-25T07:14:14;101143.44;;;6.53;100.00
64844;BME280;51310;52.198;5.422;2023-04-25T07:16:40;101136.31;;;6.65;100.00
64844;BME280;51310;52.198;5.422;2023-04-25T07:19:06;101140.34;;;6.49;100.00
64844;BME280;51310;52.198;5.422;2023-04-25T07:21:32;101145.81;;;6.59;100.00
64844;BME280;51310;52.198;5.422;2023-04-25T07:23:58;101149.50;;;6.40;100.00
64844;BME280;51310;52.198;5.422;2023-04-25T07:26:24;101159.88;;;6.41;100.00
64844;BME280;51310;52.198;5.422;2023-04-25T07:28:50;101156.81;;;6.44;100.00
64844;BME280;51310;52.198;5.422;2023-04-25T07:31:17;101155.50;;;6.47;100.00
64844;BME280;51310;52.198;5.422;2023-04-25T07:33:44;101157.53;;;6.35;100.00
64844;BME280;51310;52.198;5.422;2023-04-25T07:36:13;101172.47;;;6.54;100.00
64844;BME280;51310;52.198;5.422;2023-04-25T07:38:40;101171.22;;;6.50;100.00
64844;BME280;51310;52.198;5.422;2023-04-25T07:41:06;101175.81;;;6.24;100.00
64844;BME280;51310;52.198;5.422;2023-04-25T07:43:32;101179.84;;;6.22;100.00
64844;BME280;51310;52.198;5.422;2023-04-25T07:45:58;101177.47;;;6.31;100.00
64844;BME280;51310;52.198;5.422;2023-04-25T07:48:23;101184.34;;;6.61;100.00
64844;BME280;51310;52.198;5.422;2023-04-25T07:50:49;101179.94;;;6.81;100.00
64844;BME280;51310;52.198;5.422;2023-04-25T07:53:16;101178.69;;;6.70;100.00
64844;BME280;51310;52.198;5.422;2023-04-25T07:55:43;101186.13;;;6.83;100.00
64844;BME280;51310;52.198;5.422;2023-04-25T07:58:11;101185.44;;;6.63;100.00
64844;BME280;51310;52.198;5.422;2023-04-25T08:00:36;101191.25;;;6.83;100.00
64844;BME280;51310;52.198;5.422;2023-04-25T08:03:03;101182.28;;;6.94;100.00
64844;BME280;51310;52.198;5.422;2023-04-25T08:05:29;101181.19;;;6.92;100.00
64844;BME280;51310;52.198;5.422;2023-04-25T08:07:55;101197.66;;;6.80;100.00
64844;BME280;51310;52.198;5.422;2023-04-25T08:10:22;101209.56;;;6.57;100.00
64844;BME280;51310;52.198;5.422;2023-04-25T08:12:48;101218.91;;;6.35;100.00
64844;BME280;51310;52.198;5.422;2023-04-25T08:15:14;101226.38;;;6.34;100.00
64844;BME280;51310;52.198;5.422;2023-04-25T08:17:40;101223.81;;;6.12;100.00
64844;BME280;51310;52.198;5.422;2023-04-25T08:20:07;101234.56;;;6.10;100.00
64844;BME280;51310;52.198;5.422;2023-04-25T08:22:32;101236.41;;;6.32;100.00
64844;BME280;51310;52.198;5.422;2023-04-25T08:24:59;101230.94;;;6.36;100.00
64844;BME280;51310;52.198;5.422;2023-04-25T08:27:25;101239.34;;;6.35;100.00
64844;BME280;51310;52.198;5.422;2023-04-25T08:29:50;101227.09;;;6.26;100.00
64844;BME280;51310;52.198;5.422;2023-04-25T08:32:18;101232.59;;;6.29;100.00
64844;BME280;51310;52.198;5.422;2023-04-25T08:34:44;101236.59;;;6.27;100.00
64844;BME280;51310;52.198;5.422;2023-04-25T08:37:10;101238.97;;;6.32;100.00
64844;BME280;51310;52.198;5.422;2023-04-25T08:39:37;101243.19;;;6.46;100.00
64844;BME280;51310;52.198;5.422;2023-04-25T08:42:06;101242.63;;;6.70;100.00
64844;BME280;51310;52.198;5.422;2023-04-25T08:44:36;101252.84;;;6.49;100.00
64844;BME280;51310;52.198;5.422;2023-04-25T08:47:05;101257.78;;;6.40;100.00
64844;BME280;51310;52.198;5.422;2023-04-25T08:49:35;101259.63;;;6.55;100.00
64844;BME280;51310;52.198;5.422;2023-04-25T08:52:05;101257.97;;;6.70;100.00
64844;BME280;51310;52.198;5.422;2023-04-25T08:54:32;101257.97;;;6.85;100.00
64844;BME280;51310;52.198;5.422;2023-04-25T08:57:02;101258.25;;;7.24;100.00
64844;BME280;51310;52.198;5.422;2023-04-25T08:59:28;101268.00;;;7.49;100.00
64844;BME280;51310;52.198;5.422;2023-04-25T09:01:54;101275.44;;;7.10;100.00
64844;BME280;51310;52.198;5.422;2023-04-25T09:04:20;101272.66;;;7.30;100.00
64844;BME280;51310;52.198;5.422;2023-04-25T09:06:47;101280.03;;;7.57;100.00
64844;BME280;51310;52.198;5.422;2023-04-25T09:09:13;101291.84;;;7.41;97.31
64844;BME280;51310;52.198;5.422;2023-04-25T09:11:40;101282.78;;;7.59;95.02
64844;BME280;51310;52.198;5.422;2023-04-25T09:19:23;101287.41;;;7.92;87.01
64844;BME280;51310;52.198;5.422;2023-04-25T09:21:50;101295.28;;;8.24;87.27
64844;BME280;51310;52.198;5.422;2023-04-25T09:24:19;101292.00;;;8.17;89.29
64844;BME280;51310;52.198;5.422;2023-04-25T09:26:55;101307.31;;;7.94;85.23
64844;BME280;51310;52.198;5.422;2023-04-25T09:29:29;101315.19;;;7.58;94.32
64844;BME280;51310;52.198;5.422;2023-04-25T09:32:22;101350.41;;;6.88;100.00
64844;BME280;51310;52.198;5.422;2023-04-25T09:34:50;101337.25;;;6.63;100.00
64844;BME280;51310;52.198;5.422;2023-04-25T09:37:26;101341.91;;;6.10;100.00
64844;BME280;51310;52.198;5.422;2023-04-25T09:39:58;101353.63;;;5.46;100.00
64844;BME280;51310;52.198;5.422;2023-04-25T09:42:31;101352.03;;;5.00;100.00
64844;BME280;51310;52.198;5.422;2023-04-25T09:44:58;101362.53;;;4.88;100.00
64844;BME280;51310;52.198;5.422;2023-04-25T09:47:25;101350.88;;;4.90;100.00
64844;BME280;51310;52.198;5.422;2023-04-25T09:49:53;101348.75;;;5.21;100.00
64844;BME280;51310;52.198;5.422;2023-04-25T09:52:21;101358.69;;;5.39;100.00
64844;BME280;51310;52.198;5.422;2023-04-25T09:54:49;101354.00;;;5.84;100.00
64844;BME280;51310;52.198;5.422;2023-04-25T09:57:20;101362.00;;;6.14;100.00
64844;BME280;51310;52.198;5.422;2023-04-25T09:59:52;101358.06;;;6.45;100.00
64844;BME280;51310;52.198;5.422;2023-04-25T10:02:23;101373.09;;;6.92;100.00
64844;BME280;51310;52.198;5.422;2023-04-25T10:04:55;101374.53;;;7.11;100.00
64844;BME280;51310;52.198;5.422;2023-04-25T10:07:29;101373.47;;;7.02;100.00
64844;BME280;51310;52.198;5.422;2023-04-25T10:10:00;101363.34;;;7.25;100.00
64844;BME280;51310;52.198;5.422;2023-04-25T10:12:29;101367.19;;;7.36;100.00
64844;BME280;51310;52.198;5.422;2023-04-25T10:14:55;101367.06;;;7.13;100.00
64844;BME280;51310;52.198;5.422;2023-04-25T10:17:21;101369.22;;;7.31;100.00
64844;BME280;51310;52.198;5.422;2023-04-25T10:19:47;101364.88;;;7.75;100.00
64844;BME280;51310;52.198;5.422;2023-04-25T10:22:35;101357.38;;;8.21;100.00
64844;BME280;51310;52.198;5.422;2023-04-25T10:25:02;101353.34;;;8.23;99.41
64844;BME280;51310;52.198;5.422;2023-04-25T10:27:31;101351.72;;;8.16;98.70
64844;BME280;51310;52.198;5.422;2023-04-25T10:30:08;101357.25;;;7.60;100.00
64844;BME280;51310;52.198;5.422;2023-04-25T10:32:37;101359.03;;;7.69;100.00
64844;BME280;51310;52.198;5.422;2023-04-25T10:35:25;101365.25;;;7.71;99.08
64844;BME280;51310;52.198;5.422;2023-04-25T10:38:24;101364.72;;;7.73;98.49
64844;BME280;51310;52.198;5.422;2023-04-25T10:41:08;101361.22;;;7.73;97.49
64844;BME280;51310;52.198;5.422;2023-04-25T10:43:59;101366.34;;;7.73;97.22
64844;BME280;51310;52.198;5.422;2023-04-25T10:46:28;101363.72;;;8.01;97.77
64844;BME280;51310;52.198;5.422;2023-04-25T10:49:00;101365.19;;;7.99;97.34
64844;BME280;51310;52.198;5.422;2023-04-25T10:51:34;101360.38;;;8.47;96.50
64844;BME280;51310;52.198;5.422;2023-04-25T10:54:07;101352.91;;;8.65;94.20
64844;BME280;51310;52.198;5.422;2023-04-25T10:56:38;101361.56;;;8.20;98.07
64844;BME280;51310;52.198;5.422;2023-04-25T10:59:13;101362.09;;;7.88;93.81
64844;BME280;51310;52.198;5.422;2023-04-25T11:01:43;101371.41;;;8.01;96.64
64844;BME280;51310;52.198;5.422;2023-04-25T11:04:31;101392.59;;;7.56;100.00
64844;BME280;51310;52.198;5.422;2023-04-25T11:09:49;101412.25;;;5.32;100.00
64844;BME280;51310;52.198;5.422;2023-04-25T11:12:15;101421.19;;;5.08;100.00
64844;BME280;51310;52.198;5.422;2023-04-25T11:14:42;101448.72;;;4.91;100.00
64844;BME280;51310;52.198;5.422;2023-04-25T11:17:08;101427.72;;;4.86;100.00
64844;BME280;51310;52.198;5.422;2023-04-25T11:19:35;101430.16;;;5.12;100.00
64844;BME280;51310;52.198;5.422;2023-04-25T11:22:03;101424.06;;;5.04;100.00
64844;BME280;51310;52.198;5.422;2023-04-25T11:24:31;101418.31;;;4.92;100.00
64844;BME280;51310;52.198;5.422;2023-04-25T11:26:59;101411.50;;;5.06;100.00
64844;BME280;51310;52.198;5.422;2023-04-25T11:29:33;101408.91;;;5.26;100.00
64844;BME280;51310;52.198;5.422;2023-04-25T11:31:59;101406.97;;;5.58;100.00
64844;BME280;51310;52.198;5.422;2023-04-25T11:34:27;101403.91;;;5.94;100.00
64844;BME280;51310;52.198;5.422;2023-04-25T11:36:56;101401.81;;;6.26;100.00
64844;BME280;51310;52.198;5.422;2023-04-25T11:39:24;101404.63;;;6.56;100.00
64844;BME280;51310;52.198;5.422;2023-04-25T11:41:51;101402.13;;;6.64;100.00
64844;BME280;51310;52.198;5.422;2023-04-25T11:44:18;101402.69;;;6.83;100.00
64844;BME280;51310;52.198;5.422;2023-04-25T11:46:45;101407.09;;;7.05;100.00
64844;BME280;51310;52.198;5.422;2023-04-25T11:49:11;101406.31;;;7.28;100.00
64844;BME280;51310;52.198;5.422;2023-04-25T11:51:44;101405.63;;;7.22;100.00
64844;BME280;51310;52.198;5.422;2023-04-25T11:54:11;101404.50;;;7.34;100.00
64844;BME280;51310;52.198;5.422;2023-04-25T11:56:37;101409.06;;;7.44;100.00
64844;BME280;51310;52.198;5.422;2023-04-25T11:59:05;101412.47;;;7.80;100.00
64844;BME280;51310;52.198;5.422;2023-04-25T12:01:40;101408.53;;;8.12;100.00
64844;BME280;51310;52.198;5.422;2023-04-25T12:06:46;101399.13;;;8.20;100.00
64844;BME280;51310;52.198;5.422;2023-04-25T12:09:15;101401.25;;;7.94;100.00
64844;BME280;51310;52.198;5.422;2023-04-25T12:11:47;101412.31;;;7.64;100.00
64844;BME280;51310;52.198;5.422;2023-04-25T12:14:22;101417.63;;;7.51;100.00
64844;BME280;51310;52.198;5.422;2023-04-25T12:16:50;101420.53;;;7.69;100.00
64844;BME280;51310;52.198;5.422;2023-04-25T12:19:20;101402.72;;;8.44;100.00
64844;BME280;51310;52.198;5.422;2023-04-25T12:21:47;101417.22;;;8.36;100.00
64844;BME280;51310;52.198;5.422;2023-04-25T12:24:25;101406.50;;;8.54;100.00
64844;BME280;51310;52.198;5.422;2023-04-25T12:27:03;101411.50;;;8.46;100.00
64844;BME280;51310;52.198;5.422;2023-04-25T12:29:32;101418.63;;;8.48;91.17
64844;BME280;51310;52.198;5.422;2023-04-25T12:31:58;101424.53;;;8.33;78.10
64844;BME280;51310;52.198;5.422;2023-04-25T12:34:25;101421.75;;;8.46;73.29
64844;BME280;51310;52.198;5.422;2023-04-25T12:36:52;101422.50;;;8.45;73.74
64844;BME280;51310;52.198;5.422;2023-04-25T12:39:20;101420.03;;;8.60;77.73
64844;BME280;51310;52.198;5.422;2023-04-25T12:41:48;101427.56;;;8.07;80.55
64844;BME280;51310;52.198;5.422;2023-04-25T12:44:14;101434.34;;;8.07;85.45
64844;BME280;51310;52.198;5.422;2023-04-25T12:46:40;101430.38;;;7.87;87.63
64844;BME280;51310;52.198;5.422;2023-04-25T12:49:07;101429.31;;;7.78;91.84
64844;BME280;51310;52.198;5.422;2023-04-25T12:51:35;101436.97;;;7.85;87.60
64844;BME280;51310;52.198;5.422;2023-04-25T12:54:02;101436.66;;;7.68;84.92
64844;BME280;51310;52.198;5.422;2023-04-25T12:56:29;101436.09;;;7.70;83.27
64844;BME280;51310;52.198;5.422;2023-04-25T12:58:55;101427.84;;;8.32;84.68
64844;BME280;51310;52.198;5.422;2023-04-25T13:01:21;101417.38;;;8.75;80.63
64844;BME280;51310;52.198;5.422;2023-04-25T13:03:47;101416.06;;;8.78;77.28